sensor_id;sensor_type;location;lat;lon;timestamp;temperature;humidity
10678;DHT22;5387;48.722;9.110;2023-01-08T00:00:05;6.40;99.90
10678;DHT22;5387;48.722;9.110;2023-01-08T00:02:32;6.60;99.90
10678;DHT22;5387;48.722;9.110;2023-01-08T00:04:59;6.70;99.90
10678;DHT22;5387;48.722;9.110;2023-01-08T00:07:26;6.60;99.90
10678;DHT22;5387;48.722;9.110;2023-01-08T00:09:53;6.60;99.90
10678;DHT22;5387;48.722;9.110;2023-01-08T00:12:19;6.60;99.90
10678;DHT22;5387;48.722;9.110;2023-01-08T00:14:46;6.50;99.90
10678;DHT22;5387;48.722;9.110;2023-01-08T00:17:14;6.50;99.90
10678;DHT22;5387;48.722;9.110;2023-01-08T00:19:41;6.50;99.90
10678;DHT22;5387;48.722;9.110;2023-01-08T00:22:08;6.50;99.90
10678;DHT22;5387;48.722;9.110;2023-01-08T00:24:35;6.40;99.90
10678;DHT22;5387;48.722;9.110;2023-01-08T00:27:02;6.40;99.90
10678;DHT22;5387;48.722;9.110;2023-01-08T00:29:28;6.30;99.90
10678;DHT22;5387;48.722;9.110;2023-01-08T00:31:55;6.30;99.90
10678;DHT22;5387;48.722;9.110;2023-01-08T00:34:23;6.30;99.90
10678;DHT22;5387;48.722;9.110;2023-01-08T00:36:50;6.30;99.90
10678;DHT22;5387;48.722;9.110;2023-01-08T00:39:17;6.20;99.90
10678;DHT22;5387;48.722;9.110;2023-01-08T00:41:44;6.30;99.90
10678;DHT22;5387;48.722;9.110;2023-01-08T00:44:11;6.20;99.90
10678;DHT22;5387;48.722;9.110;2023-01-08T00:46:38;6.20;99.90
10678;DHT22;5387;48.722;9.110;2023-01-08T00:49:04;6.20;99.90
10678;DHT22;5387;48.722;9.110;2023-01-08T00:51:33;6.30;99.90
10678;DHT22;5387;48.722;9.110;2023-01-08T00:53:59;6.30;99.90
10678;DHT22;5387;48.722;9.110;2023-01-08T00:56:26;6.30;99.90
10678;DHT22;5387;48.722;9.110;2023-01-08T00:58:54;6.30;99.90
10678;DHT22;5387;48.722;9.110;2023-01-08T01:01:21;6.30;99.90
10678;DHT22;5387;48.722;9.110;2023-01-08T01:03:47;6.30;99.90
10678;DHT22;5387;48.722;9.110;2023-01-08T01:06:14;6.40;99.90
10678;DHT22;5387;48.722;9.110;2023-01-08T01:08:42;6.20;99.90
10678;DHT22;5387;48.722;9.110;2023-01-08T01:11:17;6.10;99.90
10678;DHT22;5387;48.722;9.110;2023-01-08T01:13:45;6.10;99.90
10678;DHT22;5387;48.722;9.110;2023-01-08T01:16:12;6.00;99.90
10678;DHT22;5387;48.722;9.110;2023-01-08T01:18:39;6.00;99.90
10678;DHT22;5387;48.722;9.110;2023-01-08T01:21:10;6.00;99.90
10678;DHT22;5387;48.722;9.110;2023-01-08T01:23:37;5.90;99.90
10678;DHT22;5387;48.722;9.110;2023-01-08T01:26:05;5.90;99.90
10678;DHT22;5387;48.722;9.110;2023-01-08T01:28:32;6.00;99.90
10678;DHT22;5387;48.722;9.110;2023-01-08T01:31:04;6.20;99.90
10678;DHT22;5387;48.722;9.110;2023-01-08T01:33:31;6.10;99.90
10678;DHT22;5387;48.722;9.110;2023-01-08T01:35:59;6.20;99.90
10678;DHT22;5387;48.722;9.110;2023-01-08T01:38:26;6.20;99.90
10678;DHT22;5387;48.722;9.110;2023-01-08T01:40:53;6.20;99.90
10678;DHT22;5387;48.722;9.110;2023-01-08T01:43:37;6.20;99.90
10678;DHT22;5387;48.722;9.110;2023-01-08T01:46:15;6.20;99.90
10678;DHT22;5387;48.722;9.110;2023-01-08T01:48:44;6.30;99.90
10678;DHT22;5387;48.722;9.110;2023-01-08T01:51:11;6.30;99.90
10678;DHT22;5387;48.722;9.110;2023-01-08T01:53:39;6.40;99.90
10678;DHT22;5387;48.722;9.110;2023-01-08T01:56:07;6.50;99.90
10678;DHT22;5387;48.722;9.110;2023-01-08T01:58:35;6.60;99.90
10678;DHT22;5387;48.722;9.110;2023-01-08T02:01:04;6.60;99.90
10678;DHT22;5387;48.722;9.110;2023-01-08T02:03:34;6.60;99.90
10678;DHT22;5387;48.722;9.110;2023-01-08T02:06:08;6.60;99.90
10678;DHT22;5387;48.722;9.110;2023-01-08T02:08:44;6.80;99.90
10678;DHT22;5387;48.722;9.110;2023-01-08T02:11:21;6.90;99.90
10678;DHT22;5387;48.722;9.110;2023-01-08T02:13:55;7.10;99.90
10678;DHT22;5387;48.722;9.110;2023-01-08T02:16:27;7.00;99.90
10678;DHT22;5387;48.722;9.110;2023-01-08T02:18:58;7.10;99.90
10678;DHT22;5387;48.722;9.110;2023-01-08T02:21:42;7.10;99.90
10678;DHT22;5387;48.722;9.110;2023-01-08T02:24:18;7.20;99.90
10678;DHT22;5387;48.722;9.110;2023-01-08T02:26:50;7.20;99.90
10678;DHT22;5387;48.722;9.110;2023-01-08T02:29:20;7.20;99.90
10678;DHT22;5387;48.722;9.110;2023-01-08T02:31:48;7.20;99.90
10678;DHT22;5387;48.722;9.110;2023-01-08T02:34:15;7.20;99.90
10678;DHT22;5387;48.722;9.110;2023-01-08T02:36:42;7.20;99.90
10678;DHT22;5387;48.722;9.110;2023-01-08T02:39:29;7.20;99.90
10678;DHT22;5387;48.722;9.110;2023-01-08T02:42:06;7.20;99.90
10678;DHT22;5387;48.722;9.110;2023-01-08T02:44:44;7.10;99.90
10678;DHT22;5387;48.722;9.110;2023-01-08T02:47:18;7.20;99.90
10678;DHT22;5387;48.722;9.110;2023-01-08T02:49:49;7.30;99.90
10678;DHT22;5387;48.722;9.110;2023-01-08T02:52:18;7.10;99.90
10678;DHT22;5387;48.722;9.110;2023-01-08T02:54:46;7.10;99.90
10678;DHT22;5387;48.722;9.110;2023-01-08T02:57:16;7.10;99.90
10678;DHT22;5387;48.722;9.110;2023-01-08T02:59:45;7.10;99.90
10678;DHT22;5387;48.722;9.110;2023-01-08T03:02:13;7.10;99.90
10678;DHT22;5387;48.722;9.110;2023-01-08T03:04:45;7.10;99.90
10678;DHT22;5387;48.722;9.110;2023-01-08T03:07:14;7.20;99.90
10678;DHT22;5387;48.722;9.110;2023-01-08T03:09:41;7.10;99.90
10678;DHT22;5387;48.722;9.110;2023-01-08T03:12:16;7.20;99.90
10678;DHT22;5387;48.722;9.110;2023-01-08T03:14:48;7.20;99.90
10678;DHT22;5387;48.722;9.110;2023-01-08T03:17:19;7.20;99.90
10678;DHT22;5387;48.722;9.110;2023-01-08T03:19:51;7.20;99.90
10678;DHT22;5387;48.722;9.110;2023-01-08T03:22:20;7.10;99.90
10678;DHT22;5387;48.722;9.110;2023-01-08T03:24:50;7.30;99.90
10678;DHT22;5387;48.722;9.110;2023-01-08T03:27:21;7.30;99.90
10678;DHT22;5387;48.722;9.110;2023-01-08T03:29:53;7.30;99.90
10678;DHT22;5387;48.722;9.110;2023-01-08T03:32:22;7.30;99.90
10678;DHT22;5387;48.722;9.110;2023-01-08T03:34:53;7.40;99.90
10678;DHT22;5387;48.722;9.110;2023-01-08T03:37:26;7.40;99.90
10678;DHT22;5387;48.722;9.110;2023-01-08T03:39:57;7.50;99.90
10678;DHT22;5387;48.722;9.110;2023-01-08T03:42:25;7.50;99.90
10678;DHT22;5387;48.722;9.110;2023-01-08T03:44:53;7.40;99.90
10678;DHT22;5387;48.722;9.110;2023-01-08T03:47:22;7.40;99.90
10678;DHT22;5387;48.722;9.110;2023-01-08T03:49:50;7.50;99.90
10678;DHT22;5387;48.722;9.110;2023-01-08T03:52:22;7.50;99.90
10678;DHT22;5387;48.722;9.110;2023-01-08T03:54:49;7.50;99.90
10678;DHT22;5387;48.722;9.110;2023-01-08T03:57:16;7.50;99.90
10678;DHT22;5387;48.722;9.110;2023-01-08T03:59:43;7.50;99.90
10678;DHT22;5387;48.722;9.110;2023-01-08T04:02:11;7.50;99.90
10678;DHT22;5387;48.722;9.110;2023-01-08T04:04:38;7.50;99.90
10678;DHT22;5387;48.722;9.110;2023-01-08T04:07:05;7.50;99.90
10678;DHT22;5387;48.722;9.110;2023-01-08T04:09:32;7.60;99.90
10678;DHT22;5387;48.722;9.110;2023-01-08T04:11:59;7.60;99.90
10678;DHT22;5387;48.722;9.110;2023-01-08T04:14:25;7.60;99.90
10678;DHT22;5387;48.722;9.110;2023-01-08T04:16:52;7.60;99.90
10678;DHT22;5387;48.722;9.110;2023-01-08T04:19:20;7.60;99.90
10678;DHT22;5387;48.722;9.110;2023-01-08T04:21:49;7.70;99.90
10678;DHT22;5387;48.722;9.110;2023-01-08T04:24:16;7.80;99.90
10678;DHT22;5387;48.722;9.110;2023-01-08T04:26:43;7.80;99.90
10678;DHT22;5387;48.722;9.110;2023-01-08T04:29:10;7.90;99.90
10678;DHT22;5387;48.722;9.110;2023-01-08T04:31:37;7.80;99.90
10678;DHT22;5387;48.722;9.110;2023-01-08T04:34:04;8.00;99.90
10678;DHT22;5387;48.722;9.110;2023-01-08T04:36:33;7.80;99.90
10678;DHT22;5387;48.722;9.110;2023-01-08T04:39:00;8.00;99.90
10678;DHT22;5387;48.722;9.110;2023-01-08T04:41:27;8.00;99.90
10678;DHT22;5387;48.722;9.110;2023-01-08T04:43:53;8.00;99.90
10678;DHT22;5387;48.722;9.110;2023-01-08T04:46:20;8.10;99.90
10678;DHT22;5387;48.722;9.110;2023-01-08T04:48:47;8.20;99.90
10678;DHT22;5387;48.722;9.110;2023-01-08T04:51:14;8.30;99.90
10678;DHT22;5387;48.722;9.110;2023-01-08T04:53:42;8.30;99.90
10678;DHT22;5387;48.722;9.110;2023-01-08T04:56:10;8.40;99.90
10678;DHT22;5387;48.722;9.110;2023-01-08T04:58:37;8.40;99.90
10678;DHT22;5387;48.722;9.110;2023-01-08T05:01:09;8.30;99.90
10678;DHT22;5387;48.722;9.110;2023-01-08T05:03:37;8.30;99.90
10678;DHT22;5387;48.722;9.110;2023-01-08T05:06:04;8.30;99.90
10678;DHT22;5387;48.722;9.110;2023-01-08T05:08:31;8.30;99.90
10678;DHT22;5387;48.722;9.110;2023-01-08T05:11:00;8.20;99.90
10678;DHT22;5387;48.722;9.110;2023-01-08T05:13:27;8.20;99.90
10678;DHT22;5387;48.722;9.110;2023-01-08T05:15:57;8.20;99.90
10678;DHT22;5387;48.722;9.110;2023-01-08T05:18:24;8.10;99.90
10678;DHT22;5387;48.722;9.110;2023-01-08T05:20:51;8.10;99.90
10678;DHT22;5387;48.722;9.110;2023-01-08T05:23:18;8.00;99.90
10678;DHT22;5387;48.722;9.110;2023-01-08T05:25:44;8.10;99.90
10678;DHT22;5387;48.722;9.110;2023-01-08T05:28:13;8.00;99.90
10678;DHT22;5387;48.722;9.110;2023-01-08T05:30:39;8.10;99.90
10678;DHT22;5387;48.722;9.110;2023-01-08T05:33:06;8.10;99.90
10678;DHT22;5387;48.722;9.110;2023-01-08T05:35:33;8.10;99.90
10678;DHT22;5387;48.722;9.110;2023-01-08T05:38:00;8.00;99.90
10678;DHT22;5387;48.722;9.110;2023-01-08T05:40:26;7.90;99.90
10678;DHT22;5387;48.722;9.110;2023-01-08T05:42:53;7.90;99.90
10678;DHT22;5387;48.722;9.110;2023-01-08T05:45:21;7.90;99.90
10678;DHT22;5387;48.722;9.110;2023-01-08T05:47:48;7.90;99.90
10678;DHT22;5387;48.722;9.110;2023-01-08T05:50:15;7.80;99.90
10678;DHT22;5387;48.722;9.110;2023-01-08T05:52:42;7.80;99.90
10678;DHT22;5387;48.722;9.110;2023-01-08T05:55:09;7.70;99.90
10678;DHT22;5387;48.722;9.110;2023-01-08T05:57:36;7.60;99.90
10678;DHT22;5387;48.722;9.110;2023-01-08T06:00:04;7.60;99.90
10678;DHT22;5387;48.722;9.110;2023-01-08T06:02:33;7.60;99.90
10678;DHT22;5387;48.722;9.110;2023-01-08T06:05:00;7.50;99.90
10678;DHT22;5387;48.722;9.110;2023-01-08T06:07:28;7.50;99.90
10678;DHT22;5387;48.722;9.110;2023-01-08T06:09:55;7.50;99.90
10678;DHT22;5387;48.722;9.110;2023-01-08T06:12:22;7.50;99.90
10678;DHT22;5387;48.722;9.110;2023-01-08T06:14:48;7.40;99.90
10678;DHT22;5387;48.722;9.110;2023-01-08T06:17:15;7.40;99.90
10678;DHT22;5387;48.722;9.110;2023-01-08T06:19:43;7.50;99.90
10678;DHT22;5387;48.722;9.110;2023-01-08T06:22:12;7.50;99.90
10678;DHT22;5387;48.722;9.110;2023-01-08T06:24:39;7.50;99.90
10678;DHT22;5387;48.722;9.110;2023-01-08T06:27:06;7.40;99.90
10678;DHT22;5387;48.722;9.110;2023-01-08T06:29:33;7.40;99.90
10678;DHT22;5387;48.722;9.110;2023-01-08T06:32:00;7.40;99.90
10678;DHT22;5387;48.722;9.110;2023-01-08T06:34:27;7.40;99.90
10678;DHT22;5387;48.722;9.110;2023-01-08T06:36:55;7.50;99.90
10678;DHT22;5387;48.722;9.110;2023-01-08T06:39:22;7.40;99.90
10678;DHT22;5387;48.722;9.110;2023-01-08T06:41:48;7.40;99.90
10678;DHT22;5387;48.722;9.110;2023-01-08T06:44:15;7.40;99.90
10678;DHT22;5387;48.722;9.110;2023-01-08T06:46:42;7.40;99.90
10678;DHT22;5387;48.722;9.110;2023-01-08T06:49:09;7.30;99.90
10678;DHT22;5387;48.722;9.110;2023-01-08T06:51:36;7.30;99.90
10678;DHT22;5387;48.722;9.110;2023-01-08T06:54:04;7.30;99.90
10678;DHT22;5387;48.722;9.110;2023-01-08T06:56:31;7.30;99.90
10678;DHT22;5387;48.722;9.110;2023-01-08T06:58:58;7.20;99.90
10678;DHT22;5387;48.722;9.110;2023-01-08T07:01:24;7.20;99.90
10678;DHT22;5387;48.722;9.110;2023-01-08T07:03:51;7.20;99.90
10678;DHT22;5387;48.722;9.110;2023-01-08T07:06:20;7.20;99.90
10678;DHT22;5387;48.722;9.110;2023-01-08T07:08:47;7.20;99.90
10678;DHT22;5387;48.722;9.110;2023-01-08T07:11:16;7.20;99.90
10678;DHT22;5387;48.722;9.110;2023-01-08T07:13:42;7.10;99.90
10678;DHT22;5387;48.722;9.110;2023-01-08T07:16:11;7.20;99.90
10678;DHT22;5387;48.722;9.110;2023-01-08T07:18:38;7.20;99.90
10678;DHT22;5387;48.722;9.110;2023-01-08T07:21:06;7.20;99.90
10678;DHT22;5387;48.722;9.110;2023-01-08T07:23:34;7.10;99.90
10678;DHT22;5387;48.722;9.110;2023-01-08T07:26:02;7.10;99.90
10678;DHT22;5387;48.722;9.110;2023-01-08T07:28:30;7.20;99.90
10678;DHT22;5387;48.722;9.110;2023-01-08T07:30:57;7.30;99.90
10678;DHT22;5387;48.722;9.110;2023-01-08T07:33:27;7.20;99.90
10678;DHT22;5387;48.722;9.110;2023-01-08T07:35:55;7.10;99.90
10678;DHT22;5387;48.722;9.110;2023-01-08T07:38:22;7.00;99.90
10678;DHT22;5387;48.722;9.110;2023-01-08T07:40:49;7.00;99.90
10678;DHT22;5387;48.722;9.110;2023-01-08T07:43:16;6.90;99.90
10678;DHT22;5387;48.722;9.110;2023-01-08T07:45:44;6.90;99.90
10678;DHT22;5387;48.722;9.110;2023-01-08T07:48:11;6.90;99.90
10678;DHT22;5387;48.722;9.110;2023-01-08T07:50:41;6.90;99.90
10678;DHT22;5387;48.722;9.110;2023-01-08T07:53:08;6.90;99.90
10678;DHT22;5387;48.722;9.110;2023-01-08T07:55:34;6.90;99.90
10678;DHT22;5387;48.722;9.110;2023-01-08T07:58:06;7.00;99.90
10678;DHT22;5387;48.722;9.110;2023-01-08T08:00:33;7.00;99.90
10678;DHT22;5387;48.722;9.110;2023-01-08T08:03:03;6.90;99.90
10678;DHT22;5387;48.722;9.110;2023-01-08T08:05:30;6.90;99.90
10678;DHT22;5387;48.722;9.110;2023-01-08T08:07:57;6.90;99.90
10678;DHT22;5387;48.722;9.110;2023-01-08T08:10:24;7.00;99.90
10678;DHT22;5387;48.722;9.110;2023-01-08T08:12:50;6.90;99.90
10678;DHT22;5387;48.722;9.110;2023-01-08T08:15:17;6.90;99.90
10678;DHT22;5387;48.722;9.110;2023-01-08T08:17:44;6.90;99.90
10678;DHT22;5387;48.722;9.110;2023-01-08T08:20:13;6.80;99.90
10678;DHT22;5387;48.722;9.110;2023-01-08T08:22:40;6.90;99.90
10678;DHT22;5387;48.722;9.110;2023-01-08T08:25:07;6.80;99.90
10678;DHT22;5387;48.722;9.110;2023-01-08T08:27:34;6.80;99.90
10678;DHT22;5387;48.722;9.110;2023-01-08T08:30:01;6.80;99.90
10678;DHT22;5387;48.722;9.110;2023-01-08T08:32:28;6.80;99.90
10678;DHT22;5387;48.722;9.110;2023-01-08T08:34:55;6.80;99.90
10678;DHT22;5387;48.722;9.110;2023-01-08T08:37:23;6.80;99.90
10678;DHT22;5387;48.722;9.110;2023-01-08T08:39:50;6.80;99.90
10678;DHT22;5387;48.722;9.110;2023-01-08T08:42:17;6.80;99.90
10678;DHT22;5387;48.722;9.110;2023-01-08T08:44:43;6.80;99.90
10678;DHT22;5387;48.722;9.110;2023-01-08T08:47:10;6.80;99.90
10678;DHT22;5387;48.722;9.110;2023-01-08T08:49:37;6.90;99.90
10678;DHT22;5387;48.722;9.110;2023-01-08T08:52:04;6.80;99.90
10678;DHT22;5387;48.722;9.110;2023-01-08T08:54:32;7.00;99.90
10678;DHT22;5387;48.722;9.110;2023-01-08T08:56:59;6.90;99.90
10678;DHT22;5387;48.722;9.110;2023-01-08T08:59:26;7.00;99.90
10678;DHT22;5387;48.722;9.110;2023-01-08T09:01:53;7.00;99.90
10678;DHT22;5387;48.722;9.110;2023-01-08T09:04:19;7.00;99.90
10678;DHT22;5387;48.722;9.110;2023-01-08T09:06:46;7.00;99.90
10678;DHT22;5387;48.722;9.110;2023-01-08T09:09:13;7.00;99.90
10678;DHT22;5387;48.722;9.110;2023-01-08T09:11:41;7.00;99.90
10678;DHT22;5387;48.722;9.110;2023-01-08T09:14:08;7.10;99.90
10678;DHT22;5387;48.722;9.110;2023-01-08T09:16:35;7.10;99.90
10678;DHT22;5387;48.722;9.110;2023-01-08T09:19:02;7.30;99.90
10678;DHT22;5387;48.722;9.110;2023-01-08T09:21:31;7.20;99.90
10678;DHT22;5387;48.722;9.110;2023-01-08T09:23:58;7.20;99.90
10678;DHT22;5387;48.722;9.110;2023-01-08T09:26:24;7.30;99.90
10678;DHT22;5387;48.722;9.110;2023-01-08T09:28:54;7.30;99.90
10678;DHT22;5387;48.722;9.110;2023-01-08T09:31:21;7.30;99.90
10678;DHT22;5387;48.722;9.110;2023-01-08T09:33:48;7.40;99.90
10678;DHT22;5387;48.722;9.110;2023-01-08T09:36:15;7.40;99.90
10678;DHT22;5387;48.722;9.110;2023-01-08T09:38:42;7.50;99.90
10678;DHT22;5387;48.722;9.110;2023-01-08T09:41:12;7.60;99.90
10678;DHT22;5387;48.722;9.110;2023-01-08T09:43:41;7.50;99.90
10678;DHT22;5387;48.722;9.110;2023-01-08T09:46:12;7.50;99.90
10678;DHT22;5387;48.722;9.110;2023-01-08T09:48:41;7.50;99.90
10678;DHT22;5387;48.722;9.110;2023-01-08T09:51:09;7.60;99.90
10678;DHT22;5387;48.722;9.110;2023-01-08T09:53:37;7.60;99.90
10678;DHT22;5387;48.722;9.110;2023-01-08T09:56:10;7.60;99.90
10678;DHT22;5387;48.722;9.110;2023-01-08T09:58:42;7.60;99.90
10678;DHT22;5387;48.722;9.110;2023-01-08T10:01:13;7.60;99.90
10678;DHT22;5387;48.722;9.110;2023-01-08T10:03:43;7.80;99.90
10678;DHT22;5387;48.722;9.110;2023-01-08T10:06:12;7.90;99.90
10678;DHT22;5387;48.722;9.110;2023-01-08T10:08:39;7.90;99.90
10678;DHT22;5387;48.722;9.110;2023-01-08T10:11:07;8.10;99.90
10678;DHT22;5387;48.722;9.110;2023-01-08T10:13:37;8.00;99.90
10678;DHT22;5387;48.722;9.110;2023-01-08T10:16:07;8.00;99.90
10678;DHT22;5387;48.722;9.110;2023-01-08T10:18:36;7.90;99.90
10678;DHT22;5387;48.722;9.110;2023-01-08T10:21:07;8.10;99.90
10678;DHT22;5387;48.722;9.110;2023-01-08T10:23:35;8.00;99.90
10678;DHT22;5387;48.722;9.110;2023-01-08T10:26:02;8.10;99.90
10678;DHT22;5387;48.722;9.110;2023-01-08T10:28:31;8.20;99.90
10678;DHT22;5387;48.722;9.110;2023-01-08T10:31:04;8.30;99.90
10678;DHT22;5387;48.722;9.110;2023-01-08T10:33:39;8.30;99.90
10678;DHT22;5387;48.722;9.110;2023-01-08T10:36:09;8.30;99.90
10678;DHT22;5387;48.722;9.110;2023-01-08T10:38:40;8.30;99.90
10678;DHT22;5387;48.722;9.110;2023-01-08T10:41:09;8.30;99.90
10678;DHT22;5387;48.722;9.110;2023-01-08T10:43:42;8.20;99.90
10678;DHT22;5387;48.722;9.110;2023-01-08T10:46:15;8.30;99.90
10678;DHT22;5387;48.722;9.110;2023-01-08T10:48:48;8.40;99.90
10678;DHT22;5387;48.722;9.110;2023-01-08T10:51:18;8.20;99.90
10678;DHT22;5387;48.722;9.110;2023-01-08T10:53:46;8.30;99.90
10678;DHT22;5387;48.722;9.110;2023-01-08T10:56:19;8.40;99.90
10678;DHT22;5387;48.722;9.110;2023-01-08T10:58:46;8.50;99.90
10678;DHT22;5387;48.722;9.110;2023-01-08T11:01:17;8.50;99.90
10678;DHT22;5387;48.722;9.110;2023-01-08T11:03:50;8.70;99.90
10678;DHT22;5387;48.722;9.110;2023-01-08T11:06:20;8.70;99.90
10678;DHT22;5387;48.722;9.110;2023-01-08T11:08:52;8.80;99.90
10678;DHT22;5387;48.722;9.110;2023-01-08T11:11:20;8.80;99.90
10678;DHT22;5387;48.722;9.110;2023-01-08T11:13:53;8.80;99.90
10678;DHT22;5387;48.722;9.110;2023-01-08T11:16:21;8.90;99.90
10678;DHT22;5387;48.722;9.110;2023-01-08T11:18:57;9.00;99.90
10678;DHT22;5387;48.722;9.110;2023-01-08T11:21:25;9.10;99.90
10678;DHT22;5387;48.722;9.110;2023-01-08T11:24:09;9.00;99.90
10678;DHT22;5387;48.722;9.110;2023-01-08T11:26:39;8.90;99.90
10678;DHT22;5387;48.722;9.110;2023-01-08T11:29:14;9.00;99.90
10678;DHT22;5387;48.722;9.110;2023-01-08T11:31:46;9.10;99.90
10678;DHT22;5387;48.722;9.110;2023-01-08T11:34:21;8.90;99.90
10678;DHT22;5387;48.722;9.110;2023-01-08T11:36:53;8.90;99.90
10678;DHT22;5387;48.722;9.110;2023-01-08T11:39:22;9.00;99.90
10678;DHT22;5387;48.722;9.110;2023-01-08T11:42:08;9.10;99.90
10678;DHT22;5387;48.722;9.110;2023-01-08T11:44:50;9.20;99.90
10678;DHT22;5387;48.722;9.110;2023-01-08T11:47:24;9.20;99.90
10678;DHT22;5387;48.722;9.110;2023-01-08T11:50:13;9.20;99.90
10678;DHT22;5387;48.722;9.110;2023-01-08T11:52:51;9.40;99.90
10678;DHT22;5387;48.722;9.110;2023-01-08T11:55:31;9.40;99.90
10678;DHT22;5387;48.722;9.110;2023-01-08T11:58:25;9.40;99.90
10678;DHT22;5387;48.722;9.110;2023-01-08T12:01:07;9.40;99.90
10678;DHT22;5387;48.722;9.110;2023-01-08T12:03:42;9.30;99.90
10678;DHT22;5387;48.722;9.110;2023-01-08T12:06:26;9.20;99.90
10678;DHT22;5387;48.722;9.110;2023-01-08T12:09:03;9.40;99.90
10678;DHT22;5387;48.722;9.110;2023-01-08T12:11:39;9.10;99.90
10678;DHT22;5387;48.722;9.110;2023-01-08T12:14:21;9.20;99.90
10678;DHT22;5387;48.722;9.110;2023-01-08T12:19:56;9.20;99.90
10678;DHT22;5387;48.722;9.110;2023-01-08T12:22:37;9.40;99.90
10678;DHT22;5387;48.722;9.110;2023-01-08T12:25:31;9.40;99.90
10678;DHT22;5387;48.722;9.110;2023-01-08T12:28:17;9.50;99.90
10678;DHT22;5387;48.722;9.110;2023-01-08T12:30:57;9.20;99.90
10678;DHT22;5387;48.722;9.110;2023-01-08T12:33:34;9.20;99.90
10678;DHT22;5387;48.722;9.110;2023-01-08T12:36:07;9.20;99.90
10678;DHT22;5387;48.722;9.110;2023-01-08T12:38:38;9.40;99.90
10678;DHT22;5387;48.722;9.110;2023-01-08T12:41:09;9.30;99.90
10678;DHT22;5387;48.722;9.110;2023-01-08T12:43:49;9.30;99.90
10678;DHT22;5387;48.722;9.110;2023-01-08T12:46:17;9.30;99.90
10678;DHT22;5387;48.722;9.110;2023-01-08T12:48:48;9.40;99.90
10678;DHT22;5387;48.722;9.110;2023-01-08T12:51:22;9.30;99.90
10678;DHT22;5387;48.722;9.110;2023-01-08T12:53:57;9.30;99.90
10678;DHT22;5387;48.722;9.110;2023-01-08T12:56:34;9.30;99.90
10678;DHT22;5387;48.722;9.110;2023-01-08T12:59:10;9.40;99.90
10678;DHT22;5387;48.722;9.110;2023-01-08T13:01:46;9.30;99.90
10678;DHT22;5387;48.722;9.110;2023-01-08T13:04:16;9.40;99.90
10678;DHT22;5387;48.722;9.110;2023-01-08T13:06:50;9.50;99.90
10678;DHT22;5387;48.722;9.110;2023-01-08T13:09:22;9.50;99.90
10678;DHT22;5387;48.722;9.110;2023-01-08T13:11:51;9.40;99.90
10678;DHT22;5387;48.722;9.110;2023-01-08T13:14:18;9.50;99.90
10678;DHT22;5387;48.722;9.110;2023-01-08T13:16:46;9.30;99.90
10678;DHT22;5387;48.722;9.110;2023-01-08T13:19:26;9.20;99.90
10678;DHT22;5387;48.722;9.110;2023-01-08T13:21:55;9.10;99.90
10678;DHT22;5387;48.722;9.110;2023-01-08T13:24:29;9.20;99.90
10678;DHT22;5387;48.722;9.110;2023-01-08T13:27:07;9.00;99.90
10678;DHT22;5387;48.722;9.110;2023-01-08T13:29:37;9.20;99.90
10678;DHT22;5387;48.722;9.110;2023-01-08T13:32:25;9.20;99.90
10678;DHT22;5387;48.722;9.110;2023-01-08T13:35:19;9.20;99.90
10678;DHT22;5387;48.722;9.110;2023-01-08T13:37:48;9.20;99.90
10678;DHT22;5387;48.722;9.110;2023-01-08T13:40:53;9.30;99.90
10678;DHT22;5387;48.722;9.110;2023-01-08T13:43:23;9.40;99.90
10678;DHT22;5387;48.722;9.110;2023-01-08T13:46:06;9.40;99.90
10678;DHT22;5387;48.722;9.110;2023-01-08T13:48:36;9.20;99.90
10678;DHT22;5387;48.722;9.110;2023-01-08T13:51:04;9.40;99.90
10678;DHT22;5387;48.722;9.110;2023-01-08T13:53:31;9.30;99.90
10678;DHT22;5387;48.722;9.110;2023-01-08T13:56:03;9.40;99.90
10678;DHT22;5387;48.722;9.110;2023-01-08T13:58:34;9.40;99.90
10678;DHT22;5387;48.722;9.110;2023-01-08T14:01:02;9.40;99.90
10678;DHT22;5387;48.722;9.110;2023-01-08T14:03:32;9.40;99.90
10678;DHT22;5387;48.722;9.110;2023-01-08T14:06:06;9.50;99.90
10678;DHT22;5387;48.722;9.110;2023-01-08T14:08:33;9.70;99.90
10678;DHT22;5387;48.722;9.110;2023-01-08T14:11:02;9.80;99.90
10678;DHT22;5387;48.722;9.110;2023-01-08T14:13:31;9.90;99.90
10678;DHT22;5387;48.722;9.110;2023-01-08T14:16:02;9.90;99.90
10678;DHT22;5387;48.722;9.110;2023-01-08T14:18:29;9.70;99.90
10678;DHT22;5387;48.722;9.110;2023-01-08T14:20:56;9.70;99.90
10678;DHT22;5387;48.722;9.110;2023-01-08T14:23:26;9.40;99.90
10678;DHT22;5387;48.722;9.110;2023-01-08T14:25:58;9.50;99.90
10678;DHT22;5387;48.722;9.110;2023-01-08T14:28:28;9.40;99.90
10678;DHT22;5387;48.722;9.110;2023-01-08T14:30:55;9.40;99.90
10678;DHT22;5387;48.722;9.110;2023-01-08T14:33:27;9.50;99.90
10678;DHT22;5387;48.722;9.110;2023-01-08T14:35:55;9.40;99.90
10678;DHT22;5387;48.722;9.110;2023-01-08T14:38:22;9.60;99.90
10678;DHT22;5387;48.722;9.110;2023-01-08T14:40:57;9.40;99.90
10678;DHT22;5387;48.722;9.110;2023-01-08T14:43:25;9.40;99.90
10678;DHT22;5387;48.722;9.110;2023-01-08T14:45:54;9.40;99.90
10678;DHT22;5387;48.722;9.110;2023-01-08T14:48:23;9.60;99.90
10678;DHT22;5387;48.722;9.110;2023-01-08T14:51:02;9.60;99.90
10678;DHT22;5387;48.722;9.110;2023-01-08T14:53:32;9.50;99.90
10678;DHT22;5387;48.722;9.110;2023-01-08T14:56:01;9.50;99.90
10678;DHT22;5387;48.722;9.110;2023-01-08T14:58:35;9.40;99.90
10678;DHT22;5387;48.722;9.110;2023-01-08T15:01:07;9.40;99.90
10678;DHT22;5387;48.722;9.110;2023-01-08T15:03:40;9.30;99.90
10678;DHT22;5387;48.722;9.110;2023-01-08T15:06:08;9.40;99.90
10678;DHT22;5387;48.722;9.110;2023-01-08T15:08:37;9.30;99.90
10678;DHT22;5387;48.722;9.110;2023-01-08T15:11:06;9.40;99.90
10678;DHT22;5387;48.722;9.110;2023-01-08T15:13:40;9.30;99.90
10678;DHT22;5387;48.722;9.110;2023-01-08T15:16:10;9.30;99.90
10678;DHT22;5387;48.722;9.110;2023-01-08T15:18:43;9.30;99.90
10678;DHT22;5387;48.722;9.110;2023-01-08T15:21:15;9.30;99.90
10678;DHT22;5387;48.722;9.110;2023-01-08T15:23:46;9.10;99.90
10678;DHT22;5387;48.722;9.110;2023-01-08T15:26:14;9.20;99.90
10678;DHT22;5387;48.722;9.110;2023-01-08T15:28:48;9.00;99.90
10678;DHT22;5387;48.722;9.110;2023-01-08T15:31:24;9.00;99.90
10678;DHT22;5387;48.722;9.110;2023-01-08T15:33:51;8.80;99.90
10678;DHT22;5387;48.722;9.110;2023-01-08T15:36:18;8.70;99.90
10678;DHT22;5387;48.722;9.110;2023-01-08T15:38:45;8.60;99.90
10678;DHT22;5387;48.722;9.110;2023-01-08T15:41:17;8.50;99.90
10678;DHT22;5387;48.722;9.110;2023-01-08T15:44:04;8.40;99.90
10678;DHT22;5387;48.722;9.110;2023-01-08T15:46:32;8.40;99.90
10678;DHT22;5387;48.722;9.110;2023-01-08T15:48:59;8.40;99.90
10678;DHT22;5387;48.722;9.110;2023-01-08T15:51:27;8.40;99.90
10678;DHT22;5387;48.722;9.110;2023-01-08T15:53:55;8.50;99.90
10678;DHT22;5387;48.722;9.110;2023-01-08T15:56:22;8.60;99.90
10678;DHT22;5387;48.722;9.110;2023-01-08T15:58:49;8.70;99.90
10678;DHT22;5387;48.722;9.110;2023-01-08T16:01:17;8.70;99.90
10678;DHT22;5387;48.722;9.110;2023-01-08T16:03:45;8.90;99.90
10678;DHT22;5387;48.722;9.110;2023-01-08T16:06:12;8.90;99.90
10678;DHT22;5387;48.722;9.110;2023-01-08T16:08:39;8.90;99.90
10678;DHT22;5387;48.722;9.110;2023-01-08T16:11:10;8.80;99.90
10678;DHT22;5387;48.722;9.110;2023-01-08T16:13:37;8.90;99.90
10678;DHT22;5387;48.722;9.110;2023-01-08T16:16:06;8.90;99.90
10678;DHT22;5387;48.722;9.110;2023-01-08T16:18:33;9.00;99.90
10678;DHT22;5387;48.722;9.110;2023-01-08T16:21:02;9.00;99.90